createdAt,value
2019-01-03T00:02:44.029Z,23.20
2019-01-03T00:05:50.473Z,19.67
2019-01-03T00:08:50.705Z,32.77
2019-01-03T00:11:32.533Z,18.80
2019-01-03T00:14:23.434Z,27.60
2019-01-03T00:17:20.481Z,31.40
2019-01-03T00:20:07.266Z,23.43
2019-01-03T00:22:54.106Z,19.73
2019-01-03T00:25:41.287Z,26.60
2019-01-03T00:28:28.102Z,21.37
2019-01-03T00:31:19.289Z,23.07
2019-01-03T00:34:12.566Z,15.47
2019-01-03T00:37:00.710Z,20.30
2019-01-03T00:39:43.504Z,18.47
2019-01-03T00:42:37.703Z,11.17
2019-01-03T00:45:22.269Z,8.00
2019-01-03T00:48:13.431Z,7.57
2019-01-03T00:51:00.482Z,14.10
2019-01-03T00:53:56.511Z,14.43
2019-01-03T00:56:51.469Z,12.97
2019-01-03T00:59:55.123Z,13.30
2019-01-03T01:02:38.809Z,11.60
2019-01-03T01:05:25.856Z,7.20
2019-01-03T01:08:12.817Z,17.40
2019-01-03T01:11:00.005Z,12.33
2019-01-03T01:14:03.266Z,8.97
2019-01-03T01:16:51.949Z,7.77
2019-01-03T01:19:49.217Z,13.93
2019-01-03T01:22:52.734Z,10.30
2019-01-03T01:25:39.715Z,9.63
2019-01-03T01:28:26.509Z,7.77
2019-01-03T01:31:13.260Z,9.00
2019-01-03T01:34:00.278Z,10.67
2019-01-03T01:37:03.516Z,11.03
2019-01-03T01:39:57.515Z,6.43
2019-01-03T01:42:51.581Z,7.07
2019-01-03T01:45:38.495Z,13.17
2019-01-03T01:48:26.640Z,9.73
2019-01-03T01:51:13.452Z,12.07
2019-01-03T01:54:16.941Z,6.53
2019-01-03T01:57:03.992Z,10.23
2019-01-03T01:59:50.701Z,10.50
2019-01-03T02:02:38.837Z,7.57
2019-01-03T02:05:34.481Z,5.07
2019-01-03T02:08:28.737Z,7.23
2019-01-03T02:11:19.681Z,5.83
2019-01-03T02:14:00.199Z,7.83
2019-01-03T02:16:45.821Z,9.00
2019-01-03T02:19:33.817Z,7.50
2019-01-03T02:22:40.201Z,6.33
2019-01-03T02:25:34.307Z,7.37
2019-01-03T02:28:21.320Z,13.33
2019-01-03T02:31:15.595Z,8.43
2019-01-03T02:34:02.351Z,8.77
2019-01-03T02:36:49.316Z,6.70
2019-01-03T02:39:40.443Z,3.83
2019-01-03T02:42:40.734Z,7.57
2019-01-03T02:45:35.023Z,10.13
2019-01-03T02:48:32.943Z,13.70
2019-01-03T02:51:33.262Z,11.50
2019-01-03T02:54:19.979Z,12.73
2019-01-03T02:57:06.881Z,9.43
2019-01-03T02:59:54.282Z,5.97
2019-01-03T03:02:34.085Z,7.33
2019-01-03T03:05:20.857Z,13.47
2019-01-03T03:08:06.765Z,14.77
2019-01-03T03:11:03.674Z,12.60
2019-01-03T03:14:00.820Z,11.07
2019-01-03T03:16:57.902Z,9.00
2019-01-03T03:19:51.845Z,8.17
2019-01-03T03:22:42.791Z,6.50
2019-01-03T03:25:30.940Z,5.73
2019-01-03T03:28:28.940Z,7.53
2019-01-03T03:31:17.101Z,6.90
2019-01-03T03:34:11.057Z,7.73
2019-01-03T03:36:58.022Z,13.07
2019-01-03T03:39:55.274Z,16.47
2019-01-03T03:42:58.709Z,6.10
2019-01-03T03:45:45.426Z,8.57
2019-01-03T03:48:43.151Z,7.73
2019-01-03T03:51:34.309Z,6.97
2019-01-03T03:54:30.228Z,6.80
2019-01-03T03:57:18.527Z,7.53
2019-01-03T04:00:18.832Z,5.40
2019-01-03T04:03:16.024Z,8.27
2019-01-03T04:06:02.760Z,6.93
2019-01-03T04:09:03.217Z,8.47
2019-01-03T04:11:50.113Z,8.10
2019-01-03T04:14:44.159Z,9.27
2019-01-03T04:17:23.901Z,26.23
2019-01-03T04:20:18.094Z,8.03
2019-01-03T04:23:15.243Z,11.23
2019-01-03T04:26:02.355Z,10.43
2019-01-03T04:28:50.480Z,9.27
2019-01-03T04:31:38.645Z,14.40
2019-01-03T04:34:25.314Z,6.83
2019-01-03T04:37:13.455Z,6.23
2019-01-03T04:40:00.360Z,6.83
2019-01-03T04:42:47.336Z,6.97
2019-01-03T04:45:36.750Z,7.37
2019-01-03T04:48:23.542Z,7.33
2019-01-03T04:51:27.010Z,7.43
2019-01-03T04:54:24.214Z,6.10
2019-01-03T04:57:24.629Z,46.50
2019-01-03T05:00:11.304Z,26.93
2019-01-03T05:02:58.203Z,107.50
2019-01-03T05:06:01.598Z,111.73
2019-01-03T05:08:48.523Z,149.47
2019-01-03T05:11:35.379Z,127.47
2019-01-03T05:14:26.267Z,11.87
2019-01-03T05:17:13.386Z,25.77
2019-01-03T05:20:00.274Z,9.33
2019-01-03T05:22:47.108Z,14.67
2019-01-03T05:25:53.580Z,9.90
2019-01-03T05:28:47.560Z,16.80
2019-01-03T05:31:47.957Z,18.33
2019-01-03T05:34:34.753Z,60.53
2019-01-03T05:37:12.563Z,83.13
2019-01-03T05:40:03.677Z,52.03
2019-01-03T05:42:55.143Z,107.47
2019-01-03T05:45:55.310Z,108.17
2019-01-03T05:48:58.454Z,25.70
2019-01-03T05:51:49.668Z,16.77
2019-01-03T05:54:46.979Z,15.57
2019-01-03T05:57:43.996Z,27.43
2019-01-03T06:00:47.448Z,28.80
2019-01-03T06:03:38.091Z,25.63
2019-01-03T06:06:26.237Z,51.87
2019-01-03T06:09:23.447Z,22.30
2019-01-03T06:12:23.864Z,58.30
2019-01-03T06:15:26.970Z,69.17
2019-01-03T06:18:33.626Z,59.63
2019-01-03T06:21:21.779Z,61.83
2019-01-03T06:24:22.055Z,34.70
2019-01-03T06:27:13.118Z,75.43
2019-01-03T06:30:01.245Z,26.50
2019-01-03T06:33:01.788Z,21.03
2019-01-03T06:35:48.698Z,46.13
2019-01-03T06:38:36.823Z,36.03
2019-01-03T06:41:23.849Z,76.37
2019-01-03T06:44:26.540Z,85.23
2019-01-03T06:47:13.602Z,566.47
2019-01-03T06:50:11.136Z,71.90
2019-01-03T06:52:53.017Z,36.07
2019-01-03T06:55:39.817Z,94.40
2019-01-03T06:58:27.986Z,57.13
2019-01-03T07:01:09.644Z,279.57
2019-01-03T07:03:52.176Z,130.87
2019-01-03T07:06:58.614Z,47.70
2019-01-03T07:09:59.068Z,122.43
2019-01-03T07:12:45.837Z,143.97
2019-01-03T07:15:37.094Z,185.17
2019-01-03T07:18:28.377Z,114.50
2019-01-03T07:21:27.215Z,86.77
2019-01-03T07:24:11.442Z,225.50
2019-01-03T07:26:58.165Z,247.47
2019-01-03T07:30:01.601Z,112.23
2019-01-03T07:32:52.333Z,217.20
2019-01-03T07:35:39.157Z,96.60
2019-01-03T07:38:36.267Z,130.37
2019-01-03T07:41:36.197Z,373.60
2019-01-03T07:44:33.574Z,199.13
2019-01-03T07:47:25.808Z,123.57
2019-01-03T07:50:17.360Z,93.20
2019-01-03T07:53:04.228Z,103.77
2019-01-03T07:55:55.091Z,43.97
2019-01-03T07:58:43.321Z,86.23
2019-01-03T08:01:28.502Z,104.00
2019-01-03T08:04:22.868Z,56.67
2019-01-03T08:07:10.073Z,87.90
2019-01-03T08:09:58.404Z,249.03
2019-01-03T08:12:53.435Z,55.80
2019-01-03T08:15:44.324Z,51.40
2019-01-03T08:18:30.976Z,48.53
2019-01-03T08:21:19.099Z,53.30
2019-01-03T08:24:06.108Z,39.17
2019-01-03T08:26:52.903Z,27.93
2019-01-03T08:29:39.698Z,27.27
2019-01-03T08:32:46.216Z,23.47
2019-01-03T08:35:37.348Z,30.53
2019-01-03T08:38:31.084Z,18.70
2019-01-03T08:41:37.350Z,21.77
2019-01-03T08:44:37.021Z,21.00
2019-01-03T08:47:24.005Z,21.07
2019-01-03T08:50:10.688Z,18.83
2019-01-03T08:53:05.162Z,19.70
2019-01-03T08:55:52.956Z,47.03
2019-01-03T08:58:51.167Z,100.60
2019-01-03T09:01:52.380Z,23.73
2019-01-03T09:04:39.550Z,79.20
2019-01-03T09:07:37.003Z,24.40
2019-01-03T09:10:43.766Z,51.03
2019-01-03T09:13:30.930Z,19.17
2019-01-03T09:16:28.391Z,41.30
2019-01-03T09:19:22.832Z,38.00
2019-01-03T09:22:26.014Z,34.77
2019-01-03T09:25:27.261Z,29.33
2019-01-03T09:28:30.470Z,31.53
2019-01-03T09:31:23.091Z,24.87
2019-01-03T09:34:09.731Z,14.57
2019-01-03T09:37:03.957Z,91.77
2019-01-03T09:40:04.461Z,46.60
2019-01-03T09:43:03.404Z,75.77
2019-01-03T09:45:43.820Z,96.50
2019-01-03T09:48:03.388Z,91.97
2019-01-03T09:50:32.625Z,65.17
2019-01-03T09:53:01.788Z,77.40
2019-01-03T09:55:31.532Z,66.13
2019-01-03T09:58:00.745Z,93.83
2019-01-03T10:00:37.478Z,99.50
2019-01-03T10:03:06.710Z,93.23
2019-01-03T10:05:35.920Z,52.37
2019-01-03T10:08:05.380Z,152.97
2019-01-03T10:10:34.588Z,114.73
2019-01-03T10:13:03.773Z,171.03
2019-01-03T10:15:32.923Z,138.10
2019-01-03T10:18:02.929Z,26.10
2019-01-03T10:20:32.391Z,91.47
2019-01-03T10:23:01.604Z,67.53
2019-01-03T10:25:35.025Z,104.70
2019-01-03T10:28:05.103Z,99.60
2019-01-03T10:30:34.275Z,60.53
2019-01-03T10:33:03.500Z,61.40
2019-01-03T10:35:32.663Z,128.07
2019-01-03T10:38:01.834Z,20.90
2019-01-03T10:40:31.042Z,73.00
2019-01-03T10:43:00.182Z,64.23
2019-01-03T10:45:29.380Z,48.70
2019-01-03T10:47:59.403Z,41.27
2019-01-03T10:50:28.791Z,71.00
2019-01-03T10:52:57.998Z,63.20
2019-01-03T10:55:28.125Z,42.17
2019-01-03T10:57:57.419Z,41.43
2019-01-03T11:00:26.629Z,27.50
2019-01-03T11:02:56.118Z,30.53
2019-01-03T11:05:25.316Z,36.07
2019-01-03T11:07:54.426Z,43.33
2019-01-03T11:10:23.621Z,73.57
2019-01-03T11:12:53.468Z,31.43
2019-01-03T11:15:22.573Z,45.67
2019-01-03T11:17:51.773Z,36.10
2019-01-03T11:20:20.978Z,24.70
2019-01-03T11:22:50.158Z,27.53
2019-01-03T11:25:19.353Z,24.07
2019-01-03T11:27:48.537Z,11.27
2019-01-03T11:30:17.741Z,14.77
2019-01-03T11:32:47.476Z,14.53
2019-01-03T11:35:16.824Z,19.70
2019-01-03T11:37:48.109Z,15.70
2019-01-03T11:40:17.430Z,11.70
2019-01-03T11:42:47.063Z,14.80
2019-01-03T11:49:18.472Z,19.20
2019-01-03T11:51:51.721Z,20.90
2019-01-03T11:54:21.650Z,21.40
2019-01-03T11:56:51.505Z,77.40
2019-01-03T11:59:20.698Z,15.77
2019-01-03T12:01:50.321Z,12.30
2019-01-03T12:04:19.774Z,28.63
2019-01-03T12:06:49.216Z,15.80
2019-01-03T12:09:18.355Z,34.63
2019-01-03T12:11:47.873Z,13.27
2019-01-03T12:14:17.480Z,12.80
2019-01-03T12:16:46.661Z,15.53
2019-01-03T12:19:16.183Z,16.20
2019-01-03T12:21:45.626Z,25.67
2019-01-03T12:24:14.934Z,12.70
2019-01-03T12:26:44.196Z,12.23
2019-01-03T12:29:13.522Z,26.23
2019-01-03T12:31:42.740Z,16.50
2019-01-03T12:34:11.911Z,56.47
2019-01-03T12:36:41.095Z,55.90
2019-01-03T12:39:10.291Z,17.53
2019-01-03T12:41:39.586Z,24.83
2019-01-03T12:44:09.541Z,20.30
2019-01-03T12:46:38.788Z,15.07
2019-01-03T12:49:07.931Z,18.53
2019-01-03T12:51:37.112Z,29.23
2019-01-03T12:54:06.319Z,23.93
2019-01-03T12:56:35.503Z,18.40
2019-01-03T12:59:04.736Z,17.70
2019-01-03T13:01:34.549Z,29.93
2019-01-03T13:04:05.076Z,22.10
2019-01-03T13:06:34.246Z,72.33
2019-01-03T13:09:06.381Z,21.53
2019-01-03T13:11:35.628Z,26.77
2019-01-03T13:14:05.224Z,18.13
2019-01-03T13:16:34.508Z,15.97
2019-01-03T13:19:03.735Z,14.87
2019-01-03T13:21:33.079Z,19.33
2019-01-03T13:24:02.286Z,26.53
2019-01-03T13:26:31.447Z,33.07
2019-01-03T13:29:00.646Z,16.47
2019-01-03T13:31:31.235Z,13.93
2019-01-03T13:34:00.955Z,11.17
2019-01-03T13:36:33.236Z,45.57
2019-01-03T13:39:02.081Z,30.17
2019-01-03T13:41:31.746Z,31.00
2019-01-03T13:44:00.884Z,37.40
2019-01-03T13:46:30.078Z,23.43
2019-01-03T13:48:59.645Z,23.63
2019-01-03T13:51:28.815Z,22.97
2019-01-03T13:53:58.077Z,22.23
2019-01-03T13:56:27.712Z,34.37
2019-01-03T13:58:58.910Z,47.30
2019-01-03T14:01:28.193Z,48.70
2019-01-03T14:03:57.409Z,94.47
2019-01-03T14:06:26.619Z,71.37
2019-01-03T14:08:56.830Z,56.00
2019-01-03T14:11:26.642Z,60.53
2019-01-03T14:13:55.849Z,75.80
2019-01-03T14:16:25.031Z,54.63
2019-01-03T14:18:54.295Z,38.13
2019-01-03T14:21:23.498Z,125.27
2019-01-03T14:23:52.694Z,71.77
2019-01-03T14:26:22.962Z,40.27
2019-01-03T14:28:52.334Z,38.57
2019-01-03T14:31:21.569Z,118.33
2019-01-03T14:33:50.885Z,139.93
2019-01-03T14:36:20.469Z,81.97
2019-01-03T14:38:49.686Z,53.10
2019-01-03T14:41:18.878Z,41.57
2019-01-03T14:43:48.480Z,102.07
2019-01-03T14:46:17.776Z,55.80
2019-01-03T14:48:46.983Z,52.57
2019-01-03T14:51:16.285Z,66.47
2019-01-03T14:53:47.335Z,56.63
2019-01-03T14:56:16.545Z,50.77
2019-01-03T14:58:45.837Z,34.30
2019-01-03T15:01:15.379Z,64.80
2019-01-03T15:03:44.658Z,52.07
2019-01-03T15:06:15.470Z,65.67
2019-01-03T15:08:44.665Z,54.30
2019-01-03T15:11:19.669Z,71.40
2019-01-03T15:13:48.878Z,49.03
2019-01-03T15:16:18.111Z,79.40
2019-01-03T15:18:47.415Z,61.40
2019-01-03T15:21:16.607Z,65.27
2019-01-03T15:23:45.812Z,72.43
2019-01-03T15:26:14.985Z,142.17
2019-01-03T15:28:44.338Z,79.47
2019-01-03T15:31:13.561Z,56.40
2019-01-03T15:33:42.845Z,146.63
2019-01-03T15:36:12.152Z,55.23
2019-01-03T15:38:41.571Z,59.87
2019-01-03T15:41:10.803Z,72.23
2019-01-03T15:43:40.045Z,52.67
2019-01-03T15:46:09.699Z,52.57
2019-01-03T15:48:38.895Z,54.67
2019-01-03T15:51:08.094Z,34.63
2019-01-03T15:53:37.269Z,45.07
2019-01-03T15:56:06.485Z,53.93
2019-01-03T15:58:36.034Z,128.47
2019-01-03T16:01:07.112Z,40.53
2019-01-03T16:03:40.752Z,43.03
2019-01-03T16:06:11.019Z,43.93
2019-01-03T16:08:40.262Z,44.13
2019-01-03T16:11:09.500Z,22.53
2019-01-03T16:13:38.722Z,28.73
2019-01-03T16:16:08.013Z,29.87
2019-01-03T16:18:37.721Z,54.50
2019-01-03T16:21:07.122Z,20.17
2019-01-03T16:23:36.492Z,20.93
2019-01-03T16:26:07.821Z,17.73
2019-01-03T16:28:37.040Z,20.53
2019-01-03T16:31:06.352Z,15.43
2019-01-03T16:33:36.054Z,13.90
2019-01-03T16:36:05.398Z,17.20
2019-01-03T16:38:34.733Z,12.87
2019-01-03T16:41:05.013Z,17.77
2019-01-03T16:43:34.669Z,30.37
2019-01-03T16:46:04.503Z,39.87
2019-01-03T16:48:33.784Z,24.80
2019-01-03T16:51:03.396Z,15.20
2019-01-03T16:53:32.625Z,18.80
2019-01-03T16:56:01.991Z,16.33
2019-01-03T16:58:31.300Z,15.83
2019-01-03T17:01:00.616Z,23.13
2019-01-03T17:03:29.814Z,37.33
2019-01-03T17:05:59.231Z,23.60
2019-01-03T17:08:28.457Z,39.43
2019-01-03T17:10:57.712Z,56.17
2019-01-03T17:13:27.150Z,121.20
2019-01-03T17:15:59.465Z,145.97
2019-01-03T17:18:28.655Z,119.97
2019-01-03T17:20:57.891Z,49.93
2019-01-03T17:23:27.104Z,38.33
2019-01-03T17:25:57.242Z,71.20
2019-01-03T17:28:26.502Z,66.77
2019-01-03T17:30:58.697Z,40.03
2019-01-03T17:33:27.926Z,35.07
2019-01-03T17:35:58.846Z,51.10
2019-01-03T17:38:28.074Z,68.33
2019-01-03T17:41:07.363Z,69.43
2019-01-03T17:43:37.298Z,108.60
2019-01-03T17:46:06.611Z,78.17
2019-01-03T17:48:35.809Z,118.80
2019-01-03T17:51:06.756Z,70.10
2019-01-03T17:53:36.214Z,114.40
2019-01-03T17:56:05.981Z,94.47
2019-01-03T17:58:35.328Z,146.20
2019-01-03T18:01:04.650Z,142.17
2019-01-03T18:03:34.460Z,231.93
2019-01-03T18:06:05.380Z,158.23
2019-01-03T18:08:34.739Z,156.93
2019-01-03T18:11:06.139Z,86.47
2019-01-03T18:13:35.576Z,116.90
2019-01-03T18:16:04.936Z,118.20
2019-01-03T18:18:36.756Z,102.73
2019-01-03T18:21:07.293Z,84.97
2019-01-03T18:23:36.931Z,116.03
2019-01-03T18:26:10.052Z,96.77
2019-01-03T18:28:40.480Z,81.73
2019-01-03T18:31:10.284Z,106.63
2019-01-03T18:33:39.532Z,70.83
2019-01-03T18:36:08.838Z,56.60
2019-01-03T18:38:38.848Z,158.80
2019-01-03T18:41:09.347Z,160.27
2019-01-03T18:43:39.072Z,83.63
2019-01-03T18:46:08.304Z,97.20
2019-01-03T18:48:37.496Z,96.97
2019-01-03T18:51:08.107Z,211.83
2019-01-03T18:53:37.357Z,35.93
2019-01-03T18:56:07.284Z,191.90
2019-01-03T18:58:36.683Z,47.97
2019-01-03T19:01:05.998Z,66.07
2019-01-03T19:03:35.359Z,61.73
2019-01-03T19:06:04.726Z,42.90
2019-01-03T19:08:34.176Z,37.87
2019-01-03T19:11:03.501Z,57.00
2019-01-03T19:13:32.832Z,55.53
2019-01-03T19:16:02.032Z,86.43
2019-01-03T19:18:33.370Z,58.20
2019-01-03T19:21:04.373Z,62.77
2019-01-03T19:23:33.594Z,86.40
2019-01-03T19:26:06.077Z,70.67
2019-01-03T19:28:35.325Z,86.50
2019-01-03T19:31:04.544Z,97.83
2019-01-03T19:33:33.789Z,244.03
2019-01-03T19:36:03.288Z,73.00
2019-01-03T19:38:32.977Z,50.87
2019-01-03T19:41:02.227Z,70.87
2019-01-03T19:43:31.485Z,75.83
2019-01-03T19:46:01.090Z,71.80
2019-01-03T19:48:31.443Z,116.40
2019-01-03T19:51:00.817Z,163.37
2019-01-03T19:53:30.648Z,181.80
2019-01-03T19:56:00.376Z,122.20
2019-01-03T19:58:29.617Z,88.73
2019-01-03T20:00:58.888Z,163.83
2019-01-03T20:03:28.116Z,259.80
2019-01-03T20:05:57.393Z,156.37
2019-01-03T20:08:26.571Z,179.90
2019-01-03T20:10:56.491Z,54.17
2019-01-03T20:13:25.750Z,57.80
2019-01-03T20:15:54.969Z,163.77
2019-01-03T20:18:25.335Z,186.60
2019-01-03T20:20:54.580Z,113.50
2019-01-03T20:23:23.825Z,307.43
2019-01-03T20:25:53.059Z,289.77
2019-01-03T20:28:22.314Z,115.50
2019-01-03T20:30:52.391Z,237.37
2019-01-03T20:33:24.047Z,231.50
2019-01-03T20:35:53.898Z,304.57
2019-01-03T20:38:23.225Z,376.17
2019-01-03T20:40:52.499Z,301.77
2019-01-03T20:43:22.437Z,287.10
2019-01-03T20:45:52.448Z,183.97
2019-01-03T20:48:23.810Z,416.33
2019-01-03T20:50:53.364Z,242.00
2019-01-03T20:53:22.729Z,265.57
2019-01-03T20:55:52.129Z,216.87
2019-01-03T20:58:22.259Z,343.50
2019-01-03T21:00:51.502Z,234.90
2019-01-03T21:03:20.731Z,110.27
2019-01-03T21:05:50.551Z,180.57
2019-01-03T21:08:20.153Z,167.70
2019-01-03T21:10:51.283Z,102.43
2019-01-03T21:13:20.603Z,120.63
2019-01-03T21:15:49.837Z,172.27
2019-01-03T21:18:19.028Z,94.93
2019-01-03T21:21:02.142Z,93.37
2019-01-03T21:23:31.691Z,101.43
2019-01-03T21:26:00.949Z,71.77
2019-01-03T21:28:30.144Z,72.40
2019-01-03T21:30:59.356Z,63.90
2019-01-03T21:33:28.603Z,62.20
2019-01-03T21:35:58.047Z,64.67
2019-01-03T21:38:29.133Z,115.07
2019-01-03T21:40:58.431Z,98.13
2019-01-03T21:43:27.679Z,127.10
2019-01-03T21:45:56.919Z,135.30
2019-01-03T21:48:26.185Z,92.70
2019-01-03T21:50:57.062Z,91.40
2019-01-03T21:53:26.753Z,60.50
2019-01-03T21:55:56.409Z,84.47
2019-01-03T21:58:27.711Z,106.93
2019-01-03T22:01:03.556Z,87.07
2019-01-03T22:03:33.468Z,67.20
2019-01-03T22:06:25.609Z,95.77
2019-01-03T22:09:04.773Z,106.10
2019-01-03T22:11:33.999Z,101.00
2019-01-03T22:14:03.349Z,43.00
2019-01-03T22:16:33.583Z,51.73
2019-01-03T22:19:02.992Z,66.37
2019-01-03T22:21:32.289Z,40.73
2019-01-03T22:24:01.489Z,52.40
2019-01-03T22:26:31.547Z,57.07
2019-01-03T22:29:02.918Z,46.13
2019-01-03T22:31:32.178Z,57.50
2019-01-03T22:34:02.469Z,97.50
2019-01-03T22:36:31.694Z,31.67
2019-01-03T22:39:00.921Z,39.13
2019-01-03T22:41:30.488Z,49.53
2019-01-03T22:44:00.052Z,45.40
2019-01-03T22:46:29.205Z,28.10
2019-01-03T22:48:58.435Z,33.87
2019-01-03T22:51:27.634Z,38.30
2019-01-03T22:53:56.863Z,35.10
2019-01-03T22:56:26.075Z,23.90
2019-01-03T22:58:55.289Z,32.27
2019-01-03T23:01:24.488Z,28.67
2019-01-03T23:03:54.323Z,25.47
2019-01-03T23:06:23.887Z,34.47
2019-01-03T23:08:53.085Z,28.10
2019-01-03T23:11:22.358Z,35.40
2019-01-03T23:13:51.518Z,31.53
2019-01-03T23:16:20.688Z,36.87
2019-01-03T23:18:49.886Z,37.73
2019-01-03T23:21:19.103Z,39.93
2019-01-03T23:23:48.286Z,29.07
2019-01-03T23:26:17.453Z,23.50
2019-01-03T23:28:47.434Z,27.93
2019-01-03T23:31:16.622Z,28.90
2019-01-03T23:33:45.720Z,33.77
2019-01-03T23:36:14.991Z,29.03
2019-01-03T23:38:44.087Z,35.47
2019-01-03T23:41:13.351Z,19.67
2019-01-03T23:43:42.582Z,43.90
2019-01-03T23:46:11.802Z,21.60
2019-01-03T23:48:41.546Z,37.30
2019-01-03T23:51:10.704Z,22.37
2019-01-03T23:53:39.878Z,22.37
2019-01-03T23:56:09.022Z,21.80
2019-01-03T23:58:38.202Z,22.37
